Flight Track Log - Related Links

Times and Time Zones

All times are in EDT time to prevent confusion due to time zone crossing. See the SEJ1053 flight status page for this flight to view local times or setup timezone preferences in your user account.

Time Position Orientation Groundspeed Altitude Reporting Facility
EDT Latitude Longitude Course Direction KTS MPH feet Rate Location/Type
Fri 08:23:00 AM 18.0305 78.0693 336° Northwest  Level Estimated
Fri 08:24:00 AM 18.0790 78.0465 336° Northwest  Level Estimated
Fri 08:25:00 AM 18.1275 78.0238 336° Northwest  Level Estimated
Fri 08:26:00 AM 18.1760 78.0011 336° Northwest  Level Estimated
Fri 08:27:00 AM 18.2245 77.9783 336° Northwest  Level Estimated
Fri 08:28:00 AM 18.2730 77.9556 336° Northwest  Level Estimated
Fri 08:29:00 AM 18.3215 77.9328 336° Northwest  Level Estimated
Fri 08:30:00 AM 18.3700 77.9100 336° Northwest  Level Estimated
Fri 08:31:00 AM 18.4184 77.8872 336° Northwest  Level Estimated
Fri 08:32:00 AM 18.4669 77.8644 336° Northwest  Level Estimated
Fri 08:33:00 AM 18.5154 77.8416 336° Northwest  Level Estimated
Fri 08:34:00 AM 18.5639 77.8187 336° Northwest  Level Estimated
Fri 08:35:00 AM 18.6124 77.7959 336° Northwest  Level Estimated
Fri 08:36:00 AM 18.6608 77.7730 336° Northwest  Level Estimated
Fri 08:37:00 AM 18.7093 77.7501 336° Northwest  Level Estimated
Fri 08:38:00 AM 18.7578 77.7272 336° Northwest  Level Estimated
Fri 08:39:00 AM 18.8062 77.7043 336° Northwest  Level Estimated
Fri 08:40:00 AM 18.8547 77.6814 336° Northwest  Level Estimated
Fri 08:41:00 AM 18.9032 77.6585 336° Northwest  Level Estimated
Fri 08:42:00 AM 18.9516 77.6355 336° Northwest  Level Estimated
Fri 08:43:00 AM 19.0001 77.6125 336° Northwest  Level Estimated
Fri 08:44:00 AM 19.0485 77.5896 336° Northwest  Level Estimated
Fri 08:45:00 AM 19.0970 77.5666 336° Northwest  Level Estimated
Fri 08:46:00 AM 19.1454 77.5436 336° Northwest  Level Estimated
Fri 08:47:00 AM 19.1939 77.5206 336° Northwest  Level Estimated
Fri 08:48:00 AM 19.2423 77.4976 336° Northwest  Level Estimated
Fri 08:49:00 AM 19.2908 77.4745 336° Northwest  Level Estimated
Fri 08:50:00 AM 19.3392 77.4515 336° Northwest  Level Estimated
Fri 08:51:00 AM 19.3876 77.4284 336° Northwest  Level Estimated
Fri 08:52:00 AM 19.4361 77.4053 336° Northwest  Level Estimated
Fri 08:53:00 AM 19.4845 77.3822 336° Northwest  Level Estimated
Fri 08:54:00 AM 19.5329 77.3591 336° Northwest  Level Estimated
Fri 08:55:00 AM 19.5813 77.3360 336° Northwest  Level Estimated
Fri 08:56:00 AM 19.6297 77.3128 336° Northwest  Level Estimated
Fri 08:57:00 AM 19.6782 77.2897 336° Northwest  Level Estimated
Fri 08:58:00 AM 19.7266 77.2665 336° Northwest  Level Estimated
Fri 08:59:00 AM 19.7750 77.2433 336° Northwest  Level Estimated
Fri 09:00:00 AM 19.8234 77.2202 336° Northwest  Level Estimated
Fri 09:01:00 AM 19.8718 77.1970 336° Northwest  Level Estimated
Fri 09:02:00 AM 19.9202 77.1737 336° Northwest  Level Estimated
Fri 09:03:00 AM 19.9686 77.1505 336° Northwest  Level Estimated
Fri 09:04:00 AM 20.0170 77.1272 336° Northwest  Level Estimated
Fri 09:05:00 AM 20.0654 77.1040 336° Northwest  Level Estimated
Fri 09:06:00 AM 20.1138 77.0807 336° Northwest  Level Estimated
Fri 09:07:00 AM 20.1621 77.0574 336° Northwest  Level Estimated
Fri 09:08:00 AM 20.2105 77.0341 336° Northwest  Level Estimated
Fri 09:09:00 AM 20.2589 77.0108 336° Northwest  Level Estimated
Fri 09:10:00 AM 20.3073 76.9874 336° Northwest  Level Estimated
Fri 09:11:00 AM 20.3556 76.9641 336° Northwest  Level Estimated
Fri 09:12:00 AM 20.4040 76.9407 336° Northwest  Level Estimated
Fri 09:13:00 AM 20.4524 76.9174 336° Northwest  Level Estimated
Fri 09:14:00 AM 20.5007 76.8940 336° Northwest  Level Estimated
Fri 09:15:00 AM 20.5491 76.8705 336° Northwest  Level Estimated
Fri 09:16:00 AM 20.5975 76.8471 336° Northwest  Level Estimated
Fri 09:17:00 AM 20.6458 76.8237 336° Northwest  Level Estimated
Fri 09:18:00 AM 20.6942 76.8002 336° Northwest  Level Estimated
Fri 09:19:00 AM 20.7425 76.7768 336° Northwest  Level Estimated
Fri 09:20:00 AM 20.7908 76.7533 336° Northwest  Level Estimated
Fri 09:21:00 AM 20.8392 76.7298 336° Northwest  Level Estimated
Fri 09:22:00 AM 20.8875 76.7063 336° Northwest  Level Estimated
Fri 09:23:00 AM 20.9359 76.6827 336° Northwest  Level Estimated
Fri 09:24:00 AM 20.9842 76.6592 336° Northwest  Level Estimated
Fri 09:25:00 AM 21.0325 76.6356 336° Northwest  Level Estimated
Fri 09:26:00 AM 21.0808 76.6121 336° Northwest  Level Estimated
Fri 09:27:00 AM 21.1292 76.5885 336° Northwest  Level Estimated
Fri 09:28:00 AM 21.1775 76.5648 336° Northwest  Level Estimated
Fri 09:29:00 AM 21.2258 76.5412 336° Northwest  Level Estimated
Fri 09:30:00 AM 21.2741 76.5176 335° Northwest  Level Estimated
Fri 09:31:00 AM 21.3224 76.4939 335° Northwest  Level Estimated
Fri 09:32:00 AM 21.3707 76.4703 335° Northwest  Level Estimated
Fri 09:33:00 AM 21.4190 76.4466 335° Northwest  Level Estimated
Fri 09:34:00 AM 21.4673 76.4229 335° Northwest  Level Estimated
Fri 09:35:00 AM 21.5156 76.3992 335° Northwest  Level Estimated
Fri 09:36:00 AM 21.5639 76.3755 335° Northwest  Level Estimated
Fri 09:37:00 AM 21.6122 76.3517 335° Northwest  Level Estimated
Fri 09:38:00 AM 21.6605 76.3279 335° Northwest  Level Estimated
Fri 09:39:00 AM 21.7087 76.3042 335° Northwest  Level Estimated
Fri 09:40:00 AM 21.7570 76.2804 335° Northwest  Level Estimated
Fri 09:41:00 AM 21.8053 76.2566 335° Northwest  Level Estimated
Fri 09:42:00 AM 21.8536 76.2327 335° Northwest  Level Estimated
Fri 09:43:00 AM 21.9018 76.2089 335° Northwest  Level Estimated
Fri 09:44:00 AM 21.9501 76.1850 335° Northwest  Level Estimated
Fri 09:45:00 AM 21.9984 76.1611 335° Northwest  Level Estimated
Fri 09:46:00 AM 22.0466 76.1373 335° Northwest  Level Estimated
Fri 09:47:00 AM 22.0949 76.1134 335° Northwest  Level Estimated
Fri 09:48:00 AM 22.1431 76.0894 335° Northwest  Level Estimated
Fri 09:49:00 AM 22.1914 76.0655 335° Northwest  Level Estimated
Fri 09:50:00 AM 22.2396 76.0415 335° Northwest  Level Estimated
Fri 09:51:00 AM 22.2878 76.0176 335° Northwest  Level Estimated
Fri 09:52:00 AM 22.3361 75.9936 335° Northwest  Level Estimated
Fri 09:53:00 AM 22.3843 75.9696 335° Northwest  Level Estimated
Fri 09:54:00 AM 22.4326 75.9455 335° Northwest  Level Estimated
Fri 09:55:00 AM 22.4808 75.9215 335° Northwest  Level Estimated
Fri 09:56:00 AM 22.5290 75.8975 335° Northwest  Level Estimated
Fri 09:57:00 AM 22.5772 75.8734 335° Northwest  Level Estimated
Fri 09:58:00 AM 22.6254 75.8493 335° Northwest  Level Estimated
Fri 09:59:00 AM 22.6736 75.8252 335° Northwest  Level Estimated
Fri 10:00:00 AM 22.7218 75.8011 335° Northwest  Level Estimated
Fri 10:01:00 AM 22.7218 75.8011 North  Level Estimated
Fri 10:02:00 AM 22.7218 75.8011 North  Level Estimated
Fri 10:03:00 AM 22.7218 75.8011 North  Level Estimated
Fri 10:04:00 AM 22.7218 75.8011 North  Level Estimated
Fri 10:05:00 AM 22.7218 75.8011 North  Level Estimated
Fri 10:06:00 AM 22.7218 75.8011 North  Level Estimated
Fri 10:07:00 AM 22.7218 75.8011 North  Level Estimated
Fri 10:08:00 AM 22.7218 75.8011 North  Level Estimated
Fri 10:09:00 AM 22.7218 75.8011 North  Level Estimated
Fri 10:10:00 AM 22.7218 75.8011 North  Level Estimated
Fri 10:11:00 AM 22.7218 75.8011 North  Level Estimated
Fri 10:12:00 AM 22.7218 75.8011 North  Level Estimated
Fri 10:13:00 AM 22.7218 75.8011 North  Level Estimated
Fri 10:14:00 AM 22.7218 75.8011 North  Level Estimated
Fri 10:15:00 AM 22.7218 75.8011 North  Level Estimated
Fri 10:16:00 AM 22.7218 75.8011 North  Level Estimated

Login

Don't have an account? Register now (free) for customized features, flight alerts, and more!